sensor_id;sensor_type;location;lat;lon;timestamp;temperature;humidity
7920;DHT22;18778;47.610;9.776;2023-03-29T00:00:13;5.90;90.90
7920;DHT22;18778;47.610;9.776;2023-03-29T00:02:39;5.90;90.80
7920;DHT22;18778;47.610;9.776;2023-03-29T00:05:06;5.80;90.00
7920;DHT22;18778;47.610;9.776;2023-03-29T00:07:32;5.90;89.20
7920;DHT22;18778;47.610;9.776;2023-03-29T00:09:58;5.80;89.10
7920;DHT22;18778;47.610;9.776;2023-03-29T00:14:50;5.90;87.90
7920;DHT22;18778;47.610;9.776;2023-03-29T00:17:16;5.90;90.50
7920;DHT22;18778;47.610;9.776;2023-03-29T00:19:43;5.80;91.10
7920;DHT22;18778;47.610;9.776;2023-03-29T00:22:09;5.80;91.30
7920;DHT22;18778;47.610;9.776;2023-03-29T00:24:34;5.80;91.70
7920;DHT22;18778;47.610;9.776;2023-03-29T00:27:00;5.70;92.80
7920;DHT22;18778;47.610;9.776;2023-03-29T00:29:26;5.70;92.70
7920;DHT22;18778;47.610;9.776;2023-03-29T00:31:52;5.80;92.30
7920;DHT22;18778;47.610;9.776;2023-03-29T00:34:23;5.80;91.00
7920;DHT22;18778;47.610;9.776;2023-03-29T00:36:49;5.90;89.30
7920;DHT22;18778;47.610;9.776;2023-03-29T00:39:16;6.10;90.20
7920;DHT22;18778;47.610;9.776;2023-03-29T00:41:46;6.20;88.10
7920;DHT22;18778;47.610;9.776;2023-03-29T00:47:16;6.30;89.10
7920;DHT22;18778;47.610;9.776;2023-03-29T00:49:46;6.20;89.10
7920;DHT22;18778;47.610;9.776;2023-03-29T00:52:15;6.30;87.20
7920;DHT22;18778;47.610;9.776;2023-03-29T00:54:44;6.30;89.20
7920;DHT22;18778;47.610;9.776;2023-03-29T00:57:12;6.20;87.90
7920;DHT22;18778;47.610;9.776;2023-03-29T01:02:07;6.10;86.60
7920;DHT22;18778;47.610;9.776;2023-03-29T01:04:46;6.20;88.30
7920;DHT22;18778;47.610;9.776;2023-03-29T01:07:26;6.20;88.30
7920;DHT22;18778;47.610;9.776;2023-03-29T01:10:00;6.30;90.70
7920;DHT22;18778;47.610;9.776;2023-03-29T01:12:29;6.20;89.40
7920;DHT22;18778;47.610;9.776;2023-03-29T01:15:09;6.10;89.90
7920;DHT22;18778;47.610;9.776;2023-03-29T01:17:36;6.10;90.50
7920;DHT22;18778;47.610;9.776;2023-03-29T01:20:12;6.00;90.90
7920;DHT22;18778;47.610;9.776;2023-03-29T01:27:55;5.90;91.20
7920;DHT22;18778;47.610;9.776;2023-03-29T01:30:32;5.90;92.00
7920;DHT22;18778;47.610;9.776;2023-03-29T01:33:11;5.80;92.10
7920;DHT22;18778;47.610;9.776;2023-03-29T01:35:44;5.80;92.30
7920;DHT22;18778;47.610;9.776;2023-03-29T01:38:20;5.80;92.60
7920;DHT22;18778;47.610;9.776;2023-03-29T01:40:47;5.80;93.20
7920;DHT22;18778;47.610;9.776;2023-03-29T01:43:26;5.70;93.20
7920;DHT22;18778;47.610;9.776;2023-03-29T01:48:52;5.70;93.90
7920;DHT22;18778;47.610;9.776;2023-03-29T01:51:24;5.70;94.40
7920;DHT22;18778;47.610;9.776;2023-03-29T01:54:05;5.70;94.50
7920;DHT22;18778;47.610;9.776;2023-03-29T01:56:35;5.70;95.50
7920;DHT22;18778;47.610;9.776;2023-03-29T01:59:06;5.70;95.60
7920;DHT22;18778;47.610;9.776;2023-03-29T02:01:36;5.50;96.30
7920;DHT22;18778;47.610;9.776;2023-03-29T02:04:05;5.50;97.00
7920;DHT22;18778;47.610;9.776;2023-03-29T02:06:34;5.70;97.70
7920;DHT22;18778;47.610;9.776;2023-03-29T02:09:02;5.80;98.00
7920;DHT22;18778;47.610;9.776;2023-03-29T02:11:28;6.00;98.30
7920;DHT22;18778;47.610;9.776;2023-03-29T02:13:55;6.10;98.20
7920;DHT22;18778;47.610;9.776;2023-03-29T02:16:21;6.30;98.80
7920;DHT22;18778;47.610;9.776;2023-03-29T02:18:48;6.40;98.70
7920;DHT22;18778;47.610;9.776;2023-03-29T02:21:29;6.40;99.20
7920;DHT22;18778;47.610;9.776;2023-03-29T02:23:58;6.40;99.40
7920;DHT22;18778;47.610;9.776;2023-03-29T02:26:24;6.20;99.90
7920;DHT22;18778;47.610;9.776;2023-03-29T02:28:50;6.00;99.90
7920;DHT22;18778;47.610;9.776;2023-03-29T02:31:37;5.70;99.90
7920;DHT22;18778;47.610;9.776;2023-03-29T02:34:17;5.40;99.90
7920;DHT22;18778;47.610;9.776;2023-03-29T02:36:47;5.30;99.90
7920;DHT22;18778;47.610;9.776;2023-03-29T02:39:16;6.90;99.90
7920;DHT22;18778;47.610;9.776;2023-03-29T02:41:45;5.20;99.90
7920;DHT22;18778;47.610;9.776;2023-03-29T02:44:14;5.10;99.90
7920;DHT22;18778;47.610;9.776;2023-03-29T02:49:11;5.30;99.90
7920;DHT22;18778;47.610;9.776;2023-03-29T02:51:37;5.30;99.90
7920;DHT22;18778;47.610;9.776;2023-03-29T02:54:13;5.30;99.90
7920;DHT22;18778;47.610;9.776;2023-03-29T02:56:48;5.40;99.90
7920;DHT22;18778;47.610;9.776;2023-03-29T02:59:15;8.20;99.90
7920;DHT22;18778;47.610;9.776;2023-03-29T03:01:41;5.50;99.90
7920;DHT22;18778;47.610;9.776;2023-03-29T03:04:08;5.60;99.90
7920;DHT22;18778;47.610;9.776;2023-03-29T03:06:35;5.50;99.90
7920;DHT22;18778;47.610;9.776;2023-03-29T03:09:02;5.40;99.90
7920;DHT22;18778;47.610;9.776;2023-03-29T03:13:55;5.40;99.90
7920;DHT22;18778;47.610;9.776;2023-03-29T03:16:20;5.30;99.90
7920;DHT22;18778;47.610;9.776;2023-03-29T03:18:46;5.20;99.90
7920;DHT22;18778;47.610;9.776;2023-03-29T03:21:13;5.10;99.90
7920;DHT22;18778;47.610;9.776;2023-03-29T03:26:05;5.10;99.90
7920;DHT22;18778;47.610;9.776;2023-03-29T03:28:30;5.00;99.90
7920;DHT22;18778;47.610;9.776;2023-03-29T03:30:56;5.00;99.90
7920;DHT22;18778;47.610;9.776;2023-03-29T03:35:48;5.10;99.90
7920;DHT22;18778;47.610;9.776;2023-03-29T03:38:14;5.00;99.90
7920;DHT22;18778;47.610;9.776;2023-03-29T03:40:39;5.00;99.90
7920;DHT22;18778;47.610;9.776;2023-03-29T03:43:05;5.10;99.90
7920;DHT22;18778;47.610;9.776;2023-03-29T03:47:57;5.10;99.90
7920;DHT22;18778;47.610;9.776;2023-03-29T03:50:22;5.10;99.90
7920;DHT22;18778;47.610;9.776;2023-03-29T03:52:48;5.10;99.90
7920;DHT22;18778;47.610;9.776;2023-03-29T03:55:14;5.10;99.90
7920;DHT22;18778;47.610;9.776;2023-03-29T03:57:40;5.00;99.90
7920;DHT22;18778;47.610;9.776;2023-03-29T04:00:07;5.00;99.90
7920;DHT22;18778;47.610;9.776;2023-03-29T04:05:11;5.10;99.90
7920;DHT22;18778;47.610;9.776;2023-03-29T04:07:37;5.10;99.90
7920;DHT22;18778;47.610;9.776;2023-03-29T04:10:03;5.10;99.90
7920;DHT22;18778;47.610;9.776;2023-03-29T04:12:28;5.20;99.90
7920;DHT22;18778;47.610;9.776;2023-03-29T04:14:54;5.20;99.90
7920;DHT22;18778;47.610;9.776;2023-03-29T04:17:20;5.10;99.90
7920;DHT22;18778;47.610;9.776;2023-03-29T04:19:46;5.20;99.90
7920;DHT22;18778;47.610;9.776;2023-03-29T04:22:11;5.10;99.90
7920;DHT22;18778;47.610;9.776;2023-03-29T04:24:37;6.80;99.90
7920;DHT22;18778;47.610;9.776;2023-03-29T04:27:03;5.30;99.90
7920;DHT22;18778;47.610;9.776;2023-03-29T04:29:28;5.20;99.90
7920;DHT22;18778;47.610;9.776;2023-03-29T04:31:54;5.20;99.90
7920;DHT22;18778;47.610;9.776;2023-03-29T04:34:21;6.80;99.90
7920;DHT22;18778;47.610;9.776;2023-03-29T04:39:15;5.10;99.90
7920;DHT22;18778;47.610;9.776;2023-03-29T04:44:08;5.10;99.90
7920;DHT22;18778;47.610;9.776;2023-03-29T04:46:33;5.10;99.90
7920;DHT22;18778;47.610;9.776;2023-03-29T04:48:59;5.10;99.90
7920;DHT22;18778;47.610;9.776;2023-03-29T04:51:25;6.80;99.90
7920;DHT22;18778;47.610;9.776;2023-03-29T04:53:50;5.10;99.90
7920;DHT22;18778;47.610;9.776;2023-03-29T04:56:16;5.10;99.90
7920;DHT22;18778;47.610;9.776;2023-03-29T04:58:42;5.10;99.90
7920;DHT22;18778;47.610;9.776;2023-03-29T05:03:34;5.00;99.90
7920;DHT22;18778;47.610;9.776;2023-03-29T05:06:05;5.10;99.90
7920;DHT22;18778;47.610;9.776;2023-03-29T05:08:35;5.10;99.90
7920;DHT22;18778;47.610;9.776;2023-03-29T05:11:08;5.20;99.90
7920;DHT22;18778;47.610;9.776;2023-03-29T05:13:35;5.30;99.90
7920;DHT22;18778;47.610;9.776;2023-03-29T05:16:02;5.20;99.90
7920;DHT22;18778;47.610;9.776;2023-03-29T05:18:29;5.20;99.90
7920;DHT22;18778;47.610;9.776;2023-03-29T05:20:55;5.40;99.90
7920;DHT22;18778;47.610;9.776;2023-03-29T05:23:22;7.20;99.90
7920;DHT22;18778;47.610;9.776;2023-03-29T05:25:48;7.10;99.90
7920;DHT22;18778;47.610;9.776;2023-03-29T05:28:14;5.70;99.90
7920;DHT22;18778;47.610;9.776;2023-03-29T05:30:40;5.70;99.90
7920;DHT22;18778;47.610;9.776;2023-03-29T05:33:07;5.80;99.90
7920;DHT22;18778;47.610;9.776;2023-03-29T05:35:32;5.70;99.90
7920;DHT22;18778;47.610;9.776;2023-03-29T05:38:00;7.10;99.90
7920;DHT22;18778;47.610;9.776;2023-03-29T05:42:52;6.10;99.90
7920;DHT22;18778;47.610;9.776;2023-03-29T05:45:18;6.20;99.90
7920;DHT22;18778;47.610;9.776;2023-03-29T05:47:44;6.30;99.90
7920;DHT22;18778;47.610;9.776;2023-03-29T05:50:09;6.50;99.90
7920;DHT22;18778;47.610;9.776;2023-03-29T05:52:35;6.40;99.90
7920;DHT22;18778;47.610;9.776;2023-03-29T05:55:03;6.90;99.90
7920;DHT22;18778;47.610;9.776;2023-03-29T05:57:29;6.30;99.90
7920;DHT22;18778;47.610;9.776;2023-03-29T05:59:54;6.10;99.90
7920;DHT22;18778;47.610;9.776;2023-03-29T06:02:21;7.40;99.90
7920;DHT22;18778;47.610;9.776;2023-03-29T06:04:46;5.90;99.90
7920;DHT22;18778;47.610;9.776;2023-03-29T06:07:12;6.00;99.90
7920;DHT22;18778;47.610;9.776;2023-03-29T06:09:39;5.90;99.90
7920;DHT22;18778;47.610;9.776;2023-03-29T06:12:06;5.90;99.90
7920;DHT22;18778;47.610;9.776;2023-03-29T06:14:32;5.80;99.90
7920;DHT22;18778;47.610;9.776;2023-03-29T06:16:58;5.70;99.90
7920;DHT22;18778;47.610;9.776;2023-03-29T06:19:24;5.60;99.90
7920;DHT22;18778;47.610;9.776;2023-03-29T06:21:50;5.70;99.90
7920;DHT22;18778;47.610;9.776;2023-03-29T06:24:18;5.70;99.90
7920;DHT22;18778;47.610;9.776;2023-03-29T06:26:45;5.70;99.90
7920;DHT22;18778;47.610;9.776;2023-03-29T06:29:10;5.70;99.90
7920;DHT22;18778;47.610;9.776;2023-03-29T06:31:36;5.70;99.90
7920;DHT22;18778;47.610;9.776;2023-03-29T06:34:02;5.70;99.90
7920;DHT22;18778;47.610;9.776;2023-03-29T06:38:54;6.00;99.90
7920;DHT22;18778;47.610;9.776;2023-03-29T06:41:20;6.00;99.90
7920;DHT22;18778;47.610;9.776;2023-03-29T06:43:46;6.20;99.90
7920;DHT22;18778;47.610;9.776;2023-03-29T06:48:38;6.20;99.90
7920;DHT22;18778;47.610;9.776;2023-03-29T06:51:04;6.20;99.90
7920;DHT22;18778;47.610;9.776;2023-03-29T06:53:32;6.40;99.90
7920;DHT22;18778;47.610;9.776;2023-03-29T06:58:24;6.80;99.90
7920;DHT22;18778;47.610;9.776;2023-03-29T07:00:50;6.90;99.90
7920;DHT22;18778;47.610;9.776;2023-03-29T07:03:16;6.90;99.90
7920;DHT22;18778;47.610;9.776;2023-03-29T07:05:47;7.00;99.90
7920;DHT22;18778;47.610;9.776;2023-03-29T07:08:16;6.90;99.90
7920;DHT22;18778;47.610;9.776;2023-03-29T07:10:45;6.90;99.90
7920;DHT22;18778;47.610;9.776;2023-03-29T07:13:12;6.80;99.90
7920;DHT22;18778;47.610;9.776;2023-03-29T07:15:41;6.90;99.90
7920;DHT22;18778;47.610;9.776;2023-03-29T07:18:08;6.80;99.90
7920;DHT22;18778;47.610;9.776;2023-03-29T07:20:34;6.80;99.90
7920;DHT22;18778;47.610;9.776;2023-03-29T07:23:03;6.70;99.90
7920;DHT22;18778;47.610;9.776;2023-03-29T07:25:28;6.60;99.90
7920;DHT22;18778;47.610;9.776;2023-03-29T07:30:23;6.60;99.90
7920;DHT22;18778;47.610;9.776;2023-03-29T07:32:50;6.70;99.90
7920;DHT22;18778;47.610;9.776;2023-03-29T07:35:17;6.60;99.90
7920;DHT22;18778;47.610;9.776;2023-03-29T07:37:43;6.60;99.90
7920;DHT22;18778;47.610;9.776;2023-03-29T07:40:12;6.70;99.90
7920;DHT22;18778;47.610;9.776;2023-03-29T07:42:44;6.70;99.90
7920;DHT22;18778;47.610;9.776;2023-03-29T07:45:12;6.80;99.90
7920;DHT22;18778;47.610;9.776;2023-03-29T07:47:39;6.80;99.90
7920;DHT22;18778;47.610;9.776;2023-03-29T07:50:06;6.90;99.90
7920;DHT22;18778;47.610;9.776;2023-03-29T07:54:58;6.90;99.90
7920;DHT22;18778;47.610;9.776;2023-03-29T07:57:24;7.10;99.90
7920;DHT22;18778;47.610;9.776;2023-03-29T07:59:51;7.00;99.90
7920;DHT22;18778;47.610;9.776;2023-03-29T08:02:18;7.10;99.90
7920;DHT22;18778;47.610;9.776;2023-03-29T08:04:44;7.20;99.90
7920;DHT22;18778;47.610;9.776;2023-03-29T08:07:09;7.20;99.90
7920;DHT22;18778;47.610;9.776;2023-03-29T08:09:35;7.10;99.90
7920;DHT22;18778;47.610;9.776;2023-03-29T08:12:01;7.10;99.90
7920;DHT22;18778;47.610;9.776;2023-03-29T08:16:53;7.30;99.90
7920;DHT22;18778;47.610;9.776;2023-03-29T08:21:47;7.30;99.90
7920;DHT22;18778;47.610;9.776;2023-03-29T08:24:12;7.40;99.90
7920;DHT22;18778;47.610;9.776;2023-03-29T08:29:04;7.50;99.90
7920;DHT22;18778;47.610;9.776;2023-03-29T08:31:31;7.60;99.90
7920;DHT22;18778;47.610;9.776;2023-03-29T08:33:56;7.60;99.90
7920;DHT22;18778;47.610;9.776;2023-03-29T08:36:22;7.60;99.90
7920;DHT22;18778;47.610;9.776;2023-03-29T08:38:47;7.60;99.90
7920;DHT22;18778;47.610;9.776;2023-03-29T08:41:32;7.60;99.90
7920;DHT22;18778;47.610;9.776;2023-03-29T08:44:28;7.60;99.90
7920;DHT22;18778;47.610;9.776;2023-03-29T08:49:33;7.60;99.90
7920;DHT22;18778;47.610;9.776;2023-03-29T08:52:03;7.60;99.90
7920;DHT22;18778;47.610;9.776;2023-03-29T08:54:46;7.70;99.90
7920;DHT22;18778;47.610;9.776;2023-03-29T08:57:32;7.70;99.90
7920;DHT22;18778;47.610;9.776;2023-03-29T09:00:02;7.60;99.90
7920;DHT22;18778;47.610;9.776;2023-03-29T09:02:32;7.70;99.90
7920;DHT22;18778;47.610;9.776;2023-03-29T09:07:43;8.20;99.90
7920;DHT22;18778;47.610;9.776;2023-03-29T09:10:13;7.80;99.90
7920;DHT22;18778;47.610;9.776;2023-03-29T09:12:52;7.80;99.90
7920;DHT22;18778;47.610;9.776;2023-03-29T09:15:24;7.80;99.90
7920;DHT22;18778;47.610;9.776;2023-03-29T09:18:20;7.90;99.90
7920;DHT22;18778;47.610;9.776;2023-03-29T09:20:48;7.80;99.90
7920;DHT22;18778;47.610;9.776;2023-03-29T09:25:59;8.10;99.90
7920;DHT22;18778;47.610;9.776;2023-03-29T09:28:36;8.10;99.90
7920;DHT22;18778;47.610;9.776;2023-03-29T09:31:20;8.10;99.90
7920;DHT22;18778;47.610;9.776;2023-03-29T09:33:53;8.30;99.90
7920;DHT22;18778;47.610;9.776;2023-03-29T09:36:37;8.40;99.90
7920;DHT22;18778;47.610;9.776;2023-03-29T09:39:09;8.40;99.90
7920;DHT22;18778;47.610;9.776;2023-03-29T09:44:31;8.60;99.90
7920;DHT22;18778;47.610;9.776;2023-03-29T09:47:23;9.50;99.90
7920;DHT22;18778;47.610;9.776;2023-03-29T09:49:53;8.80;99.90
7920;DHT22;18778;47.610;9.776;2023-03-29T09:52:21;9.40;99.90
7920;DHT22;18778;47.610;9.776;2023-03-29T09:54:47;9.10;99.90
7920;DHT22;18778;47.610;9.776;2023-03-29T09:57:15;9.20;99.90
7920;DHT22;18778;47.610;9.776;2023-03-29T09:59:45;9.30;99.90
7920;DHT22;18778;47.610;9.776;2023-03-29T10:02:12;9.60;99.90
7920;DHT22;18778;47.610;9.776;2023-03-29T10:04:39;9.70;99.90
7920;DHT22;18778;47.610;9.776;2023-03-29T10:07:08;10.00;99.90
7920;DHT22;18778;47.610;9.776;2023-03-29T10:09:34;10.80;99.90
7920;DHT22;18778;47.610;9.776;2023-03-29T10:12:04;10.10;99.90
7920;DHT22;18778;47.610;9.776;2023-03-29T10:14:45;10.00;99.90
7920;DHT22;18778;47.610;9.776;2023-03-29T10:17:26;10.40;99.90
7920;DHT22;18778;47.610;9.776;2023-03-29T10:20:01;9.90;99.90
7920;DHT22;18778;47.610;9.776;2023-03-29T10:22:34;9.90;99.90
7920;DHT22;18778;47.610;9.776;2023-03-29T10:25:03;9.80;99.90
7920;DHT22;18778;47.610;9.776;2023-03-29T10:27:31;10.00;99.90
7920;DHT22;18778;47.610;9.776;2023-03-29T10:30:06;10.00;99.90
7920;DHT22;18778;47.610;9.776;2023-03-29T10:32:36;10.20;99.90
7920;DHT22;18778;47.610;9.776;2023-03-29T10:35:11;10.10;99.90
7920;DHT22;18778;47.610;9.776;2023-03-29T10:37:43;10.20;99.90
7920;DHT22;18778;47.610;9.776;2023-03-29T10:40:40;10.20;99.90
7920;DHT22;18778;47.610;9.776;2023-03-29T10:43:23;10.30;99.90
7920;DHT22;18778;47.610;9.776;2023-03-29T10:45:54;10.30;99.90
7920;DHT22;18778;47.610;9.776;2023-03-29T10:48:27;11.30;99.90
7920;DHT22;18778;47.610;9.776;2023-03-29T10:50:57;10.20;99.90
7920;DHT22;18778;47.610;9.776;2023-03-29T10:53:26;10.30;99.90
7920;DHT22;18778;47.610;9.776;2023-03-29T10:56:15;10.30;99.90
7920;DHT22;18778;47.610;9.776;2023-03-29T11:07:32;10.50;99.90
7920;DHT22;18778;47.610;9.776;2023-03-29T11:12:39;10.50;99.90
7920;DHT22;18778;47.610;9.776;2023-03-29T11:26:00;10.30;99.90
7920;DHT22;18778;47.610;9.776;2023-03-29T11:41:47;11.50;99.90
7920;DHT22;18778;47.610;9.776;2023-03-29T11:44:18;12.50;99.90
7920;DHT22;18778;47.610;9.776;2023-03-29T11:47:01;10.50;99.90
7920;DHT22;18778;47.610;9.776;2023-03-29T11:49:39;10.50;99.90
7920;DHT22;18778;47.610;9.776;2023-03-29T11:52:38;10.60;99.90
7920;DHT22;18778;47.610;9.776;2023-03-29T11:55:08;10.50;99.90
7920;DHT22;18778;47.610;9.776;2023-03-29T11:57:50;10.60;99.90
7920;DHT22;18778;47.610;9.776;2023-03-29T12:03:09;10.90;99.90
7920;DHT22;18778;47.610;9.776;2023-03-29T12:05:52;11.10;99.90
7920;DHT22;18778;47.610;9.776;2023-03-29T12:08:30;11.20;99.90
7920;DHT22;18778;47.610;9.776;2023-03-29T12:11:03;11.30;99.90
7920;DHT22;18778;47.610;9.776;2023-03-29T12:13:37;11.40;99.90
7920;DHT22;18778;47.610;9.776;2023-03-29T12:16:14;11.50;99.90
7920;DHT22;18778;47.610;9.776;2023-03-29T12:18:47;11.60;99.90
7920;DHT22;18778;47.610;9.776;2023-03-29T12:21:21;11.70;99.90
7920;DHT22;18778;47.610;9.776;2023-03-29T12:23:48;12.40;99.90
7920;DHT22;18778;47.610;9.776;2023-03-29T12:38:23;12.70;99.90
7920;DHT22;18778;47.610;9.776;2023-03-29T12:40:56;12.60;99.90
7920;DHT22;18778;47.610;9.776;2023-03-29T12:48:31;12.20;99.90
7920;DHT22;18778;47.610;9.776;2023-03-29T12:51:02;12.20;99.90
7920;DHT22;18778;47.610;9.776;2023-03-29T12:53:37;12.20;99.90
7920;DHT22;18778;47.610;9.776;2023-03-29T13:03:56;11.80;99.90
7920;DHT22;18778;47.610;9.776;2023-03-29T13:09:18;11.60;99.90
7920;DHT22;18778;47.610;9.776;2023-03-29T13:11:51;11.60;99.90
7920;DHT22;18778;47.610;9.776;2023-03-29T13:14:19;11.80;99.90
7920;DHT22;18778;47.610;9.776;2023-03-29T13:16:45;11.60;99.90
7920;DHT22;18778;47.610;9.776;2023-03-29T13:19:29;11.70;99.90
7920;DHT22;18778;47.610;9.776;2023-03-29T13:22:05;11.80;99.90
7920;DHT22;18778;47.610;9.776;2023-03-29T13:30:45;11.80;99.90
7920;DHT22;18778;47.610;9.776;2023-03-29T13:38:23;11.80;99.90
7920;DHT22;18778;47.610;9.776;2023-03-29T13:41:04;11.90;99.90
7920;DHT22;18778;47.610;9.776;2023-03-29T13:43:50;12.00;99.90
7920;DHT22;18778;47.610;9.776;2023-03-29T13:46:34;12.00;99.90
7920;DHT22;18778;47.610;9.776;2023-03-29T13:49:05;12.30;99.90
7920;DHT22;18778;47.610;9.776;2023-03-29T13:51:46;13.60;99.90
7920;DHT22;18778;47.610;9.776;2023-03-29T13:54:25;13.00;99.90
7920;DHT22;18778;47.610;9.776;2023-03-29T13:59:48;12.50;99.90
7920;DHT22;18778;47.610;9.776;2023-03-29T14:02:52;12.50;99.90
7920;DHT22;18778;47.610;9.776;2023-03-29T14:05:33;12.70;99.90
7920;DHT22;18778;47.610;9.776;2023-03-29T14:10:46;12.90;99.90
7920;DHT22;18778;47.610;9.776;2023-03-29T14:13:14;13.30;99.90
7920;DHT22;18778;47.610;9.776;2023-03-29T14:15:49;13.20;99.90
7920;DHT22;18778;47.610;9.776;2023-03-29T14:18:18;13.70;99.90
7920;DHT22;18778;47.610;9.776;2023-03-29T14:20:46;13.70;99.90
7920;DHT22;18778;47.610;9.776;2023-03-29T14:23:21;13.50;99.90
7920;DHT22;18778;47.610;9.776;2023-03-29T14:25:47;13.20;99.90
7920;DHT22;18778;47.610;9.776;2023-03-29T14:28:24;13.10;99.90
7920;DHT22;18778;47.610;9.776;2023-03-29T14:30:50;13.70;99.90
7920;DHT22;18778;47.610;9.776;2023-03-29T14:33:28;14.90;99.90
7920;DHT22;18778;47.610;9.776;2023-03-29T14:35:56;15.70;99.90
7920;DHT22;18778;47.610;9.776;2023-03-29T14:38:23;15.70;99.90
7920;DHT22;18778;47.610;9.776;2023-03-29T14:40:50;15.70;99.90
7920;DHT22;18778;47.610;9.776;2023-03-29T14:43:18;15.20;99.90
7920;DHT22;18778;47.610;9.776;2023-03-29T14:45:46;15.50;99.90
7920;DHT22;18778;47.610;9.776;2023-03-29T14:48:13;15.20;99.90
7920;DHT22;18778;47.610;9.776;2023-03-29T14:50:39;14.70;99.90
7920;DHT22;18778;47.610;9.776;2023-03-29T14:53:05;14.30;99.90
7920;DHT22;18778;47.610;9.776;2023-03-29T14:55:32;14.30;99.90
7920;DHT22;18778;47.610;9.776;2023-03-29T14:57:58;14.20;99.90
7920;DHT22;18778;47.610;9.776;2023-03-29T15:00:36;14.20;99.90
7920;DHT22;18778;47.610;9.776;2023-03-29T15:03:03;14.00;99.90
7920;DHT22;18778;47.610;9.776;2023-03-29T15:05:38;13.40;99.90
7920;DHT22;18778;47.610;9.776;2023-03-29T15:08:06;13.30;99.90
7920;DHT22;18778;47.610;9.776;2023-03-29T15:10:35;14.10;99.90
7920;DHT22;18778;47.610;9.776;2023-03-29T15:13:03;13.70;99.90
7920;DHT22;18778;47.610;9.776;2023-03-29T15:15:35;13.10;99.90
7920;DHT22;18778;47.610;9.776;2023-03-29T15:18:05;13.10;99.90
7920;DHT22;18778;47.610;9.776;2023-03-29T15:20:37;13.00;99.90
7920;DHT22;18778;47.610;9.776;2023-03-29T15:25:52;13.10;99.90
7920;DHT22;18778;47.610;9.776;2023-03-29T15:28:30;13.10;99.90
7920;DHT22;18778;47.610;9.776;2023-03-29T15:31:24;13.70;99.90
7920;DHT22;18778;47.610;9.776;2023-03-29T15:34:01;13.00;99.90
7920;DHT22;18778;47.610;9.776;2023-03-29T15:36:27;13.00;99.90
7920;DHT22;18778;47.610;9.776;2023-03-29T15:38:53;13.00;99.90
7920;DHT22;18778;47.610;9.776;2023-03-29T15:41:18;13.00;99.90
7920;DHT22;18778;47.610;9.776;2023-03-29T15:43:44;13.40;99.90
7920;DHT22;18778;47.610;9.776;2023-03-29T15:46:11;14.20;99.90
7920;DHT22;18778;47.610;9.776;2023-03-29T15:48:37;15.00;99.90
7920;DHT22;18778;47.610;9.776;2023-03-29T15:51:03;15.30;99.90
7920;DHT22;18778;47.610;9.776;2023-03-29T15:53:29;15.60;99.90
7920;DHT22;18778;47.610;9.776;2023-03-29T15:55:58;15.60;99.90
7920;DHT22;18778;47.610;9.776;2023-03-29T15:58:28;15.90;99.90
7920;DHT22;18778;47.610;9.776;2023-03-29T16:01:17;16.10;99.90
7920;DHT22;18778;47.610;9.776;2023-03-29T16:03:48;16.10;99.90
7920;DHT22;18778;47.610;9.776;2023-03-29T16:06:14;16.30;99.90
7920;DHT22;18778;47.610;9.776;2023-03-29T16:08:41;14.80;99.90
7920;DHT22;18778;47.610;9.776;2023-03-29T16:11:07;14.40;99.90
7920;DHT22;18778;47.610;9.776;2023-03-29T16:13:33;15.30;99.90
7920;DHT22;18778;47.610;9.776;2023-03-29T16:15:59;13.70;99.90
7920;DHT22;18778;47.610;9.776;2023-03-29T16:18:24;14.60;99.90
7920;DHT22;18778;47.610;9.776;2023-03-29T16:20:50;15.20;99.90
7920;DHT22;18778;47.610;9.776;2023-03-29T16:23:16;13.30;99.90
7920;DHT22;18778;47.610;9.776;2023-03-29T16:25:41;13.30;99.90
7920;DHT22;18778;47.610;9.776;2023-03-29T16:28:08;13.20;99.90
7920;DHT22;18778;47.610;9.776;2023-03-29T16:30:35;13.10;99.90
7920;DHT22;18778;47.610;9.776;2023-03-29T16:33:02;13.00;99.90
7920;DHT22;18778;47.610;9.776;2023-03-29T16:35:34;13.60;99.90
7920;DHT22;18778;47.610;9.776;2023-03-29T16:38:00;12.90;99.90
7920;DHT22;18778;47.610;9.776;2023-03-29T16:40:25;12.90;99.90
7920;DHT22;18778;47.610;9.776;2023-03-29T16:42:52;13.00;99.90
7920;DHT22;18778;47.610;9.776;2023-03-29T16:45:18;13.10;99.90
7920;DHT22;18778;47.610;9.776;2023-03-29T16:47:43;14.00;99.90
7920;DHT22;18778;47.610;9.776;2023-03-29T16:50:10;13.10;99.90
7920;DHT22;18778;47.610;9.776;2023-03-29T16:52:36;13.60;99.90
7920;DHT22;18778;47.610;9.776;2023-03-29T16:55:03;13.70;99.90
7920;DHT22;18778;47.610;9.776;2023-03-29T16:57:29;13.00;99.90
7920;DHT22;18778;47.610;9.776;2023-03-29T16:59:55;13.00;99.90
7920;DHT22;18778;47.610;9.776;2023-03-29T17:02:21;13.00;99.90
7920;DHT22;18778;47.610;9.776;2023-03-29T17:04:46;13.00;99.90
7920;DHT22;18778;47.610;9.776;2023-03-29T17:07:12;14.80;99.90
7920;DHT22;18778;47.610;9.776;2023-03-29T17:09:37;12.90;99.90
7920;DHT22;18778;47.610;9.776;2023-03-29T17:12:04;14.30;99.90
7920;DHT22;18778;47.610;9.776;2023-03-29T17:16:56;12.80;99.90
7920;DHT22;18778;47.610;9.776;2023-03-29T17:19:21;12.80;99.90
7920;DHT22;18778;47.610;9.776;2023-03-29T17:21:47;12.80;99.90
7920;DHT22;18778;47.610;9.776;2023-03-29T17:24:12;12.90;99.90
7920;DHT22;18778;47.610;9.776;2023-03-29T17:26:38;12.80;99.90
7920;DHT22;18778;47.610;9.776;2023-03-29T17:29:04;13.00;99.90
7920;DHT22;18778;47.610;9.776;2023-03-29T17:31:30;13.70;99.90
7920;DHT22;18778;47.610;9.776;2023-03-29T17:33:56;13.30;99.90
7920;DHT22;18778;47.610;9.776;2023-03-29T17:36:22;13.80;99.90
7920;DHT22;18778;47.610;9.776;2023-03-29T17:38:48;13.80;99.90
7920;DHT22;18778;47.610;9.776;2023-03-29T17:41:15;12.90;99.90
7920;DHT22;18778;47.610;9.776;2023-03-29T17:43:41;12.80;99.90
7920;DHT22;18778;47.610;9.776;2023-03-29T17:46:07;14.20;99.90
7920;DHT22;18778;47.610;9.776;2023-03-29T17:48:32;12.60;99.90
7920;DHT22;18778;47.610;9.776;2023-03-29T17:50:58;12.70;99.90
7920;DHT22;18778;47.610;9.776;2023-03-29T17:53:24;13.20;99.90
7920;DHT22;18778;47.610;9.776;2023-03-29T17:55:50;14.70;99.90
7920;DHT22;18778;47.610;9.776;2023-03-29T17:58:16;12.60;99.90
7920;DHT22;18778;47.610;9.776;2023-03-29T18:00:41;12.50;99.90
7920;DHT22;18778;47.610;9.776;2023-03-29T18:03:07;12.70;99.90
7920;DHT22;18778;47.610;9.776;2023-03-29T18:05:34;12.70;99.90
7920;DHT22;18778;47.610;9.776;2023-03-29T18:08:00;13.10;99.90
7920;DHT22;18778;47.610;9.776;2023-03-29T18:10:25;14.60;99.90
7920;DHT22;18778;47.610;9.776;2023-03-29T18:12:52;12.90;99.90
7920;DHT22;18778;47.610;9.776;2023-03-29T18:15:18;12.80;99.90
7920;DHT22;18778;47.610;9.776;2023-03-29T18:17:44;12.70;99.90
7920;DHT22;18778;47.610;9.776;2023-03-29T18:20:10;13.00;99.90
7920;DHT22;18778;47.610;9.776;2023-03-29T18:22:39;12.60;99.90
7920;DHT22;18778;47.610;9.776;2023-03-29T18:25:09;12.60;99.90
7920;DHT22;18778;47.610;9.776;2023-03-29T18:27:36;13.10;99.90
7920;DHT22;18778;47.610;9.776;2023-03-29T18:30:03;12.70;99.90
7920;DHT22;18778;47.610;9.776;2023-03-29T18:32:28;12.70;99.90
7920;DHT22;18778;47.610;9.776;2023-03-29T18:34:54;13.80;99.90
7920;DHT22;18778;47.610;9.776;2023-03-29T18:37:20;13.00;99.90
7920;DHT22;18778;47.610;9.776;2023-03-29T18:39:45;12.80;99.90
7920;DHT22;18778;47.610;9.776;2023-03-29T18:42:12;13.60;99.90
7920;DHT22;18778;47.610;9.776;2023-03-29T18:44:38;14.50;99.90
7920;DHT22;18778;47.610;9.776;2023-03-29T18:47:05;13.70;99.90